sensor_id;sensor_type;location;lat;lon;timestamp;P1;durP1;ratioP1;P2;durP2;ratioP2
74614;SDS011;63121;51.458;-0.110;2022-12-18T00:00:45;26.88;;;9.32;;
74614;SDS011;63121;51.458;-0.110;2022-12-18T00:03:12;40.53;;;12.38;;
74614;SDS011;63121;51.458;-0.110;2022-12-18T00:05:45;75.47;;;21.77;;
74614;SDS011;63121;51.458;-0.110;2022-12-18T00:08:14;57.75;;;15.65;;
74614;SDS011;63121;51.458;-0.110;2022-12-18T00:10:40;44.03;;;14.15;;
74614;SDS011;63121;51.458;-0.110;2022-12-18T00:13:06;41.10;;;12.68;;
74614;SDS011;63121;51.458;-0.110;2022-12-18T00:15:33;35.63;;;10.25;;
74614;SDS011;63121;51.458;-0.110;2022-12-18T00:18:01;35.95;;;10.68;;
74614;SDS011;63121;51.458;-0.110;2022-12-18T00:20:27;29.02;;;9.60;;
74614;SDS011;63121;51.458;-0.110;2022-12-18T00:22:52;27.10;;;8.57;;
74614;SDS011;63121;51.458;-0.110;2022-12-18T00:25:18;31.85;;;9.70;;
74614;SDS011;63121;51.458;-0.110;2022-12-18T00:27:44;26.52;;;9.23;;
74614;SDS011;63121;51.458;-0.110;2022-12-18T00:30:09;27.73;;;9.27;;
74614;SDS011;63121;51.458;-0.110;2022-12-18T00:32:35;25.50;;;8.98;;
74614;SDS011;63121;51.458;-0.110;2022-12-18T00:35:01;29.10;;;8.97;;
74614;SDS011;63121;51.458;-0.110;2022-12-18T00:37:26;26.88;;;9.35;;
74614;SDS011;63121;51.458;-0.110;2022-12-18T00:39:51;26.27;;;9.50;;
74614;SDS011;63121;51.458;-0.110;2022-12-18T00:42:17;34.07;;;9.80;;
74614;SDS011;63121;51.458;-0.110;2022-12-18T00:47:26;29.23;;;9.07;;
74614;SDS011;63121;51.458;-0.110;2022-12-18T00:49:51;26.57;;;8.37;;
74614;SDS011;63121;51.458;-0.110;2022-12-18T00:52:17;28.27;;;9.17;;
74614;SDS011;63121;51.458;-0.110;2022-12-18T00:54:42;27.57;;;8.03;;
74614;SDS011;63121;51.458;-0.110;2022-12-18T00:57:07;28.47;;;8.80;;
74614;SDS011;63121;51.458;-0.110;2022-12-18T00:59:33;27.02;;;9.32;;
74614;SDS011;63121;51.458;-0.110;2022-12-18T01:01:58;28.30;;;8.93;;
74614;SDS011;63121;51.458;-0.110;2022-12-18T01:04:23;28.97;;;9.13;;
74614;SDS011;63121;51.458;-0.110;2022-12-18T01:06:49;23.73;;;8.17;;
74614;SDS011;63121;51.458;-0.110;2022-12-18T01:09:14;27.65;;;9.10;;
74614;SDS011;63121;51.458;-0.110;2022-12-18T01:11:39;23.07;;;8.40;;
74614;SDS011;63121;51.458;-0.110;2022-12-18T01:14:05;20.97;;;7.90;;
74614;SDS011;63121;51.458;-0.110;2022-12-18T01:16:30;24.08;;;8.30;;
74614;SDS011;63121;51.458;-0.110;2022-12-18T01:18:56;25.00;;;7.70;;
74614;SDS011;63121;51.458;-0.110;2022-12-18T01:21:21;26.20;;;7.43;;
74614;SDS011;63121;51.458;-0.110;2022-12-18T01:23:50;22.17;;;7.93;;
74614;SDS011;63121;51.458;-0.110;2022-12-18T01:26:18;23.67;;;8.23;;
74614;SDS011;63121;51.458;-0.110;2022-12-18T01:28:43;26.77;;;9.13;;
74614;SDS011;63121;51.458;-0.110;2022-12-18T01:31:20;23.30;;;7.18;;
74614;SDS011;63121;51.458;-0.110;2022-12-18T01:33:47;24.42;;;8.18;;
74614;SDS011;63121;51.458;-0.110;2022-12-18T01:36:20;22.67;;;8.10;;
74614;SDS011;63121;51.458;-0.110;2022-12-18T01:38:48;22.00;;;7.97;;
74614;SDS011;63121;51.458;-0.110;2022-12-18T01:41:15;27.52;;;9.63;;
74614;SDS011;63121;51.458;-0.110;2022-12-18T01:43:43;23.98;;;7.88;;
74614;SDS011;63121;51.458;-0.110;2022-12-18T01:46:23;26.20;;;8.57;;
74614;SDS011;63121;51.458;-0.110;2022-12-18T01:48:51;23.17;;;7.75;;
74614;SDS011;63121;51.458;-0.110;2022-12-18T01:51:21;25.60;;;8.65;;
74614;SDS011;63121;51.458;-0.110;2022-12-18T01:53:47;24.65;;;7.57;;
74614;SDS011;63121;51.458;-0.110;2022-12-18T01:56:14;24.15;;;7.82;;
74614;SDS011;63121;51.458;-0.110;2022-12-18T02:01:09;25.17;;;8.88;;
74614;SDS011;63121;51.458;-0.110;2022-12-18T02:03:35;25.02;;;8.75;;
74614;SDS011;63121;51.458;-0.110;2022-12-18T02:06:03;24.85;;;8.18;;
74614;SDS011;63121;51.458;-0.110;2022-12-18T02:17:04;21.42;;;6.43;;
74614;SDS011;63121;51.458;-0.110;2022-12-18T02:19:42;21.77;;;6.75;;
74614;SDS011;63121;51.458;-0.110;2022-12-18T02:25:29;20.83;;;7.03;;
74614;SDS011;63121;51.458;-0.110;2022-12-18T02:28:10;23.63;;;6.57;;
74614;SDS011;63121;51.458;-0.110;2022-12-18T02:30:38;21.17;;;6.90;;
74614;SDS011;63121;51.458;-0.110;2022-12-18T02:33:06;21.00;;;7.00;;
74614;SDS011;63121;51.458;-0.110;2022-12-18T02:35:33;22.48;;;7.65;;
74614;SDS011;63121;51.458;-0.110;2022-12-18T02:38:00;21.63;;;6.55;;
74614;SDS011;63121;51.458;-0.110;2022-12-18T02:40:27;22.15;;;7.30;;
74614;SDS011;63121;51.458;-0.110;2022-12-18T02:42:54;21.08;;;6.38;;
74614;SDS011;63121;51.458;-0.110;2022-12-18T02:45:19;20.90;;;6.97;;
74614;SDS011;63121;51.458;-0.110;2022-12-18T02:47:46;22.85;;;7.32;;
74614;SDS011;63121;51.458;-0.110;2022-12-18T02:50:30;22.98;;;7.65;;
74614;SDS011;63121;51.458;-0.110;2022-12-18T02:58:23;22.20;;;6.95;;
74614;SDS011;63121;51.458;-0.110;2022-12-18T03:04:01;21.98;;;6.43;;
74614;SDS011;63121;51.458;-0.110;2022-12-18T03:06:56;22.30;;;6.65;;
74614;SDS011;63121;51.458;-0.110;2022-12-18T03:09:26;20.23;;;6.03;;
74614;SDS011;63121;51.458;-0.110;2022-12-18T03:11:58;23.17;;;6.65;;
74614;SDS011;63121;51.458;-0.110;2022-12-18T03:14:49;22.70;;;6.68;;
74614;SDS011;63121;51.458;-0.110;2022-12-18T03:17:19;24.90;;;6.30;;
74614;SDS011;63121;51.458;-0.110;2022-12-18T03:19:48;19.73;;;6.53;;
74614;SDS011;63121;51.458;-0.110;2022-12-18T03:22:16;18.27;;;6.03;;
74614;SDS011;63121;51.458;-0.110;2022-12-18T03:24:42;24.13;;;6.47;;
74614;SDS011;63121;51.458;-0.110;2022-12-18T03:27:11;17.95;;;5.38;;
74614;SDS011;63121;51.458;-0.110;2022-12-18T03:29:41;19.20;;;6.97;;
74614;SDS011;63121;51.458;-0.110;2022-12-18T03:32:11;20.42;;;6.72;;
74614;SDS011;63121;51.458;-0.110;2022-12-18T03:34:44;18.05;;;5.40;;
74614;SDS011;63121;51.458;-0.110;2022-12-18T03:37:14;19.45;;;6.53;;
74614;SDS011;63121;51.458;-0.110;2022-12-18T03:39:40;22.10;;;6.38;;
74614;SDS011;63121;51.458;-0.110;2022-12-18T03:42:07;19.70;;;4.78;;
74614;SDS011;63121;51.458;-0.110;2022-12-18T03:56:09;19.48;;;6.22;;
74614;SDS011;63121;51.458;-0.110;2022-12-18T03:58:37;16.65;;;5.18;;
74614;SDS011;63121;51.458;-0.110;2022-12-18T04:01:08;15.70;;;5.32;;
74614;SDS011;63121;51.458;-0.110;2022-12-18T04:03:37;14.45;;;4.50;;
74614;SDS011;63121;51.458;-0.110;2022-12-18T04:06:04;17.90;;;5.70;;
74614;SDS011;63121;51.458;-0.110;2022-12-18T04:08:30;25.00;;;6.85;;
74614;SDS011;63121;51.458;-0.110;2022-12-18T04:10:56;15.30;;;4.90;;
74614;SDS011;63121;51.458;-0.110;2022-12-18T04:13:27;15.75;;;5.00;;
74614;SDS011;63121;51.458;-0.110;2022-12-18T04:15:54;20.17;;;6.10;;
74614;SDS011;63121;51.458;-0.110;2022-12-18T04:18:19;16.98;;;5.45;;
74614;SDS011;63121;51.458;-0.110;2022-12-18T04:20:45;17.83;;;5.30;;
74614;SDS011;63121;51.458;-0.110;2022-12-18T04:23:10;14.57;;;4.90;;
74614;SDS011;63121;51.458;-0.110;2022-12-18T04:25:36;17.60;;;5.28;;
74614;SDS011;63121;51.458;-0.110;2022-12-18T04:28:01;18.25;;;5.13;;
74614;SDS011;63121;51.458;-0.110;2022-12-18T04:30:27;16.88;;;5.25;;
74614;SDS011;63121;51.458;-0.110;2022-12-18T04:32:52;16.57;;;5.47;;
74614;SDS011;63121;51.458;-0.110;2022-12-18T04:35:17;18.15;;;5.00;;
74614;SDS011;63121;51.458;-0.110;2022-12-18T04:37:43;16.17;;;5.22;;
74614;SDS011;63121;51.458;-0.110;2022-12-18T04:40:08;18.23;;;5.53;;
74614;SDS011;63121;51.458;-0.110;2022-12-18T04:42:34;15.43;;;4.47;;
74614;SDS011;63121;51.458;-0.110;2022-12-18T04:44:59;21.65;;;5.88;;
74614;SDS011;63121;51.458;-0.110;2022-12-18T04:47:25;16.50;;;4.80;;
74614;SDS011;63121;51.458;-0.110;2022-12-18T04:49:50;19.40;;;5.93;;
74614;SDS011;63121;51.458;-0.110;2022-12-18T04:52:15;17.60;;;5.70;;
74614;SDS011;63121;51.458;-0.110;2022-12-18T04:54:41;21.13;;;4.97;;
74614;SDS011;63121;51.458;-0.110;2022-12-18T04:57:06;15.77;;;5.17;;
74614;SDS011;63121;51.458;-0.110;2022-12-18T04:59:32;16.00;;;5.15;;
74614;SDS011;63121;51.458;-0.110;2022-12-18T05:01:57;18.30;;;6.00;;
74614;SDS011;63121;51.458;-0.110;2022-12-18T05:04:22;16.93;;;5.73;;
74614;SDS011;63121;51.458;-0.110;2022-12-18T05:06:48;17.23;;;5.22;;
74614;SDS011;63121;51.458;-0.110;2022-12-18T05:09:13;18.47;;;5.77;;
74614;SDS011;63121;51.458;-0.110;2022-12-18T05:11:38;22.07;;;5.80;;
74614;SDS011;63121;51.458;-0.110;2022-12-18T05:14:03;20.90;;;5.30;;
74614;SDS011;63121;51.458;-0.110;2022-12-18T05:16:29;20.87;;;6.03;;
74614;SDS011;63121;51.458;-0.110;2022-12-18T05:18:54;15.87;;;4.83;;
74614;SDS011;63121;51.458;-0.110;2022-12-18T05:21:20;16.83;;;5.05;;
74614;SDS011;63121;51.458;-0.110;2022-12-18T05:23:45;18.92;;;5.60;;
74614;SDS011;63121;51.458;-0.110;2022-12-18T05:26:13;21.83;;;5.53;;
74614;SDS011;63121;51.458;-0.110;2022-12-18T05:28:41;15.90;;;5.05;;
74614;SDS011;63121;51.458;-0.110;2022-12-18T05:31:07;21.93;;;6.53;;
74614;SDS011;63121;51.458;-0.110;2022-12-18T05:33:32;17.57;;;5.07;;
74614;SDS011;63121;51.458;-0.110;2022-12-18T05:38:26;17.20;;;4.20;;
74614;SDS011;63121;51.458;-0.110;2022-12-18T05:40:52;17.77;;;5.35;;
74614;SDS011;63121;51.458;-0.110;2022-12-18T05:43:19;17.15;;;5.10;;
74614;SDS011;63121;51.458;-0.110;2022-12-18T05:45:46;15.27;;;5.15;;
74614;SDS011;63121;51.458;-0.110;2022-12-18T05:48:12;16.10;;;5.35;;
74614;SDS011;63121;51.458;-0.110;2022-12-18T05:50:40;14.93;;;5.60;;
74614;SDS011;63121;51.458;-0.110;2022-12-18T05:53:07;19.92;;;6.22;;
74614;SDS011;63121;51.458;-0.110;2022-12-18T05:55:33;19.38;;;6.38;;
74614;SDS011;63121;51.458;-0.110;2022-12-18T05:57:59;15.30;;;4.43;;
74614;SDS011;63121;51.458;-0.110;2022-12-18T06:00:25;23.30;;;7.50;;
74614;SDS011;63121;51.458;-0.110;2022-12-18T06:02:51;18.10;;;6.10;;
74614;SDS011;63121;51.458;-0.110;2022-12-18T06:05:16;17.65;;;6.35;;
74614;SDS011;63121;51.458;-0.110;2022-12-18T06:07:41;20.33;;;6.80;;
74614;SDS011;63121;51.458;-0.110;2022-12-18T06:10:07;17.85;;;5.95;;
74614;SDS011;63121;51.458;-0.110;2022-12-18T06:12:32;18.25;;;6.53;;
74614;SDS011;63121;51.458;-0.110;2022-12-18T06:15:00;14.80;;;5.22;;
74614;SDS011;63121;51.458;-0.110;2022-12-18T06:17:30;20.02;;;6.32;;
74614;SDS011;63121;51.458;-0.110;2022-12-18T06:19:56;17.83;;;6.03;;
74614;SDS011;63121;51.458;-0.110;2022-12-18T06:22:21;20.85;;;6.38;;
74614;SDS011;63121;51.458;-0.110;2022-12-18T06:24:47;23.33;;;6.32;;
74614;SDS011;63121;51.458;-0.110;2022-12-18T06:27:12;21.93;;;7.63;;
74614;SDS011;63121;51.458;-0.110;2022-12-18T06:29:38;19.50;;;6.65;;
74614;SDS011;63121;51.458;-0.110;2022-12-18T06:32:03;13.33;;;4.60;;
74614;SDS011;63121;51.458;-0.110;2022-12-18T06:34:29;18.45;;;6.75;;
74614;SDS011;63121;51.458;-0.110;2022-12-18T06:36:54;17.10;;;5.87;;
74614;SDS011;63121;51.458;-0.110;2022-12-18T06:39:19;17.97;;;5.07;;
74614;SDS011;63121;51.458;-0.110;2022-12-18T06:41:45;18.13;;;5.97;;
74614;SDS011;63121;51.458;-0.110;2022-12-18T06:44:10;20.20;;;6.37;;
74614;SDS011;63121;51.458;-0.110;2022-12-18T06:46:36;20.73;;;6.65;;
74614;SDS011;63121;51.458;-0.110;2022-12-18T06:49:01;18.00;;;6.87;;
74614;SDS011;63121;51.458;-0.110;2022-12-18T06:51:26;18.07;;;6.87;;
74614;SDS011;63121;51.458;-0.110;2022-12-18T06:53:51;18.97;;;6.33;;
74614;SDS011;63121;51.458;-0.110;2022-12-18T06:56:17;20.57;;;7.53;;
74614;SDS011;63121;51.458;-0.110;2022-12-18T06:58:42;22.25;;;6.55;;
74614;SDS011;63121;51.458;-0.110;2022-12-18T07:01:09;20.02;;;6.95;;
74614;SDS011;63121;51.458;-0.110;2022-12-18T07:03:40;20.52;;;7.28;;
74614;SDS011;63121;51.458;-0.110;2022-12-18T07:06:06;17.92;;;6.30;;
74614;SDS011;63121;51.458;-0.110;2022-12-18T07:08:37;18.55;;;7.13;;
74614;SDS011;63121;51.458;-0.110;2022-12-18T07:11:03;19.43;;;6.57;;
74614;SDS011;63121;51.458;-0.110;2022-12-18T07:13:29;19.38;;;6.80;;
74614;SDS011;63121;51.458;-0.110;2022-12-18T07:15:55;22.02;;;6.65;;
74614;SDS011;63121;51.458;-0.110;2022-12-18T07:18:20;20.33;;;6.57;;
74614;SDS011;63121;51.458;-0.110;2022-12-18T07:20:45;21.63;;;7.30;;
74614;SDS011;63121;51.458;-0.110;2022-12-18T07:23:11;20.47;;;6.23;;
74614;SDS011;63121;51.458;-0.110;2022-12-18T07:25:36;16.38;;;6.63;;
74614;SDS011;63121;51.458;-0.110;2022-12-18T07:28:02;19.00;;;6.07;;
74614;SDS011;63121;51.458;-0.110;2022-12-18T07:30:29;19.40;;;6.60;;
74614;SDS011;63121;51.458;-0.110;2022-12-18T07:32:54;19.83;;;6.95;;
74614;SDS011;63121;51.458;-0.110;2022-12-18T07:35:20;19.93;;;5.97;;
74614;SDS011;63121;51.458;-0.110;2022-12-18T07:37:45;18.73;;;5.75;;
74614;SDS011;63121;51.458;-0.110;2022-12-18T07:40:11;15.33;;;5.87;;
74614;SDS011;63121;51.458;-0.110;2022-12-18T07:42:36;21.33;;;7.20;;
74614;SDS011;63121;51.458;-0.110;2022-12-18T07:45:02;21.23;;;7.03;;
74614;SDS011;63121;51.458;-0.110;2022-12-18T07:47:28;23.52;;;6.45;;
74614;SDS011;63121;51.458;-0.110;2022-12-18T07:49:54;18.88;;;6.45;;
74614;SDS011;63121;51.458;-0.110;2022-12-18T07:52:19;15.57;;;5.03;;
74614;SDS011;63121;51.458;-0.110;2022-12-18T07:54:45;19.52;;;6.72;;
74614;SDS011;63121;51.458;-0.110;2022-12-18T07:57:10;19.42;;;6.75;;
74614;SDS011;63121;51.458;-0.110;2022-12-18T07:59:36;20.38;;;6.97;;
74614;SDS011;63121;51.458;-0.110;2022-12-18T08:02:02;17.83;;;6.25;;
74614;SDS011;63121;51.458;-0.110;2022-12-18T08:04:27;21.42;;;6.55;;
74614;SDS011;63121;51.458;-0.110;2022-12-18T08:06:53;18.38;;;6.30;;
74614;SDS011;63121;51.458;-0.110;2022-12-18T08:09:19;22.17;;;7.15;;
74614;SDS011;63121;51.458;-0.110;2022-12-18T08:11:44;20.00;;;6.37;;
74614;SDS011;63121;51.458;-0.110;2022-12-18T08:14:10;20.60;;;7.30;;
74614;SDS011;63121;51.458;-0.110;2022-12-18T08:16:35;16.83;;;5.93;;
74614;SDS011;63121;51.458;-0.110;2022-12-18T08:19:01;17.33;;;7.43;;
74614;SDS011;63121;51.458;-0.110;2022-12-18T08:21:28;17.83;;;6.13;;
74614;SDS011;63121;51.458;-0.110;2022-12-18T08:23:55;20.38;;;7.47;;
74614;SDS011;63121;51.458;-0.110;2022-12-18T08:26:23;18.63;;;7.03;;
74614;SDS011;63121;51.458;-0.110;2022-12-18T08:28:53;19.88;;;5.65;;
74614;SDS011;63121;51.458;-0.110;2022-12-18T08:31:20;21.73;;;6.75;;
74614;SDS011;63121;51.458;-0.110;2022-12-18T08:33:47;20.02;;;7.05;;
74614;SDS011;63121;51.458;-0.110;2022-12-18T08:36:14;19.52;;;7.07;;
74614;SDS011;63121;51.458;-0.110;2022-12-18T08:38:39;21.67;;;7.20;;
74614;SDS011;63121;51.458;-0.110;2022-12-18T08:41:06;18.55;;;6.30;;
74614;SDS011;63121;51.458;-0.110;2022-12-18T08:43:32;19.65;;;6.55;;
74614;SDS011;63121;51.458;-0.110;2022-12-18T08:46:20;21.08;;;6.65;;
74614;SDS011;63121;51.458;-0.110;2022-12-18T08:48:46;22.13;;;7.22;;
74614;SDS011;63121;51.458;-0.110;2022-12-18T08:51:12;21.10;;;7.18;;
74614;SDS011;63121;51.458;-0.110;2022-12-18T08:53:40;18.58;;;6.63;;
74614;SDS011;63121;51.458;-0.110;2022-12-18T08:56:07;17.92;;;6.45;;
74614;SDS011;63121;51.458;-0.110;2022-12-18T08:58:32;18.92;;;6.75;;
74614;SDS011;63121;51.458;-0.110;2022-12-18T09:01:01;19.30;;;6.40;;
74614;SDS011;63121;51.458;-0.110;2022-12-18T09:03:28;20.35;;;7.25;;
74614;SDS011;63121;51.458;-0.110;2022-12-18T09:05:54;22.90;;;6.93;;
74614;SDS011;63121;51.458;-0.110;2022-12-18T09:08:19;21.60;;;6.78;;
74614;SDS011;63121;51.458;-0.110;2022-12-18T09:10:46;20.23;;;6.82;;
74614;SDS011;63121;51.458;-0.110;2022-12-18T09:13:14;15.98;;;6.47;;
74614;SDS011;63121;51.458;-0.110;2022-12-18T09:15:50;22.42;;;7.18;;
74614;SDS011;63121;51.458;-0.110;2022-12-18T09:18:18;19.73;;;7.10;;
74614;SDS011;63121;51.458;-0.110;2022-12-18T09:20:45;18.48;;;6.60;;
74614;SDS011;63121;51.458;-0.110;2022-12-18T09:23:11;19.05;;;6.43;;
74614;SDS011;63121;51.458;-0.110;2022-12-18T09:25:40;17.55;;;6.30;;
74614;SDS011;63121;51.458;-0.110;2022-12-18T09:28:06;18.67;;;6.13;;
74614;SDS011;63121;51.458;-0.110;2022-12-18T09:30:39;20.55;;;7.25;;
74614;SDS011;63121;51.458;-0.110;2022-12-18T09:33:06;18.25;;;6.80;;
74614;SDS011;63121;51.458;-0.110;2022-12-18T09:35:32;21.05;;;7.32;;
74614;SDS011;63121;51.458;-0.110;2022-12-18T09:37:57;19.73;;;6.38;;
74614;SDS011;63121;51.458;-0.110;2022-12-18T09:40:23;21.57;;;6.70;;
74614;SDS011;63121;51.458;-0.110;2022-12-18T09:42:57;18.02;;;6.78;;
74614;SDS011;63121;51.458;-0.110;2022-12-18T09:45:25;20.30;;;6.82;;
74614;SDS011;63121;51.458;-0.110;2022-12-18T09:47:52;19.17;;;7.13;;
74614;SDS011;63121;51.458;-0.110;2022-12-18T09:50:30;21.83;;;7.63;;
74614;SDS011;63121;51.458;-0.110;2022-12-18T09:52:59;21.52;;;6.63;;
74614;SDS011;63121;51.458;-0.110;2022-12-18T09:55:35;17.55;;;6.72;;
74614;SDS011;63121;51.458;-0.110;2022-12-18T09:58:12;17.92;;;6.47;;
74614;SDS011;63121;51.458;-0.110;2022-12-18T10:00:42;19.25;;;6.30;;
74614;SDS011;63121;51.458;-0.110;2022-12-18T10:03:11;18.88;;;6.35;;
74614;SDS011;63121;51.458;-0.110;2022-12-18T10:15:13;17.05;;;6.47;;
74614;SDS011;63121;51.458;-0.110;2022-12-18T10:19:59;19.92;;;6.82;;
74614;SDS011;63121;51.458;-0.110;2022-12-18T10:27:42;20.08;;;6.63;;
74614;SDS011;63121;51.458;-0.110;2022-12-18T10:30:18;17.27;;;6.32;;
74614;SDS011;63121;51.458;-0.110;2022-12-18T10:32:46;16.42;;;6.35;;
74614;SDS011;63121;51.458;-0.110;2022-12-18T10:35:17;18.77;;;6.07;;
74614;SDS011;63121;51.458;-0.110;2022-12-18T10:38:01;20.90;;;6.80;;
74614;SDS011;63121;51.458;-0.110;2022-12-18T10:40:32;16.55;;;5.68;;
74614;SDS011;63121;51.458;-0.110;2022-12-18T10:43:04;18.98;;;6.68;;
74614;SDS011;63121;51.458;-0.110;2022-12-18T10:45:35;17.92;;;6.07;;
74614;SDS011;63121;51.458;-0.110;2022-12-18T10:48:00;18.37;;;6.30;;
74614;SDS011;63121;51.458;-0.110;2022-12-18T10:50:33;18.75;;;6.82;;
74614;SDS011;63121;51.458;-0.110;2022-12-18T10:53:00;18.55;;;6.10;;
74614;SDS011;63121;51.458;-0.110;2022-12-18T10:55:35;17.58;;;6.18;;
74614;SDS011;63121;51.458;-0.110;2022-12-18T11:06:02;18.02;;;6.45;;
74614;SDS011;63121;51.458;-0.110;2022-12-18T11:08:34;18.05;;;6.20;;
74614;SDS011;63121;51.458;-0.110;2022-12-18T11:11:00;17.38;;;6.05;;
74614;SDS011;63121;51.458;-0.110;2022-12-18T11:13:27;16.48;;;6.60;;
74614;SDS011;63121;51.458;-0.110;2022-12-18T11:15:54;18.35;;;6.55;;
74614;SDS011;63121;51.458;-0.110;2022-12-18T11:18:25;17.30;;;5.80;;
74614;SDS011;63121;51.458;-0.110;2022-12-18T11:20:57;17.38;;;6.50;;
74614;SDS011;63121;51.458;-0.110;2022-12-18T11:23:26;15.90;;;6.28;;
74614;SDS011;63121;51.458;-0.110;2022-12-18T11:25:56;18.25;;;6.07;;
74614;SDS011;63121;51.458;-0.110;2022-12-18T11:29:27;17.40;;;5.97;;
74614;SDS011;63121;51.458;-0.110;2022-12-18T11:31:32;14.18;;;5.97;;
74614;SDS011;63121;51.458;-0.110;2022-12-18T11:36:23;19.60;;;6.90;;
74614;SDS011;63121;51.458;-0.110;2022-12-18T11:38:50;18.20;;;6.57;;
74614;SDS011;63121;51.458;-0.110;2022-12-18T11:41:30;19.35;;;6.75;;
74614;SDS011;63121;51.458;-0.110;2022-12-18T11:44:22;20.08;;;6.72;;
74614;SDS011;63121;51.458;-0.110;2022-12-18T11:47:00;17.65;;;6.10;;
74614;SDS011;63121;51.458;-0.110;2022-12-18T11:49:33;19.48;;;7.15;;
74614;SDS011;63121;51.458;-0.110;2022-12-18T11:52:02;15.90;;;5.80;;
74614;SDS011;63121;51.458;-0.110;2022-12-18T11:54:34;20.15;;;6.85;;
74614;SDS011;63121;51.458;-0.110;2022-12-18T11:57:13;21.27;;;8.52;;
74614;SDS011;63121;51.458;-0.110;2022-12-18T12:17:00;15.38;;;5.80;;
74614;SDS011;63121;51.458;-0.110;2022-12-18T12:19:44;19.08;;;6.63;;
74614;SDS011;63121;51.458;-0.110;2022-12-18T12:22:33;20.13;;;6.90;;
74614;SDS011;63121;51.458;-0.110;2022-12-18T12:37:40;20.65;;;7.40;;
74614;SDS011;63121;51.458;-0.110;2022-12-18T12:40:20;15.52;;;5.85;;
74614;SDS011;63121;51.458;-0.110;2022-12-18T12:42:51;17.25;;;6.10;;
74614;SDS011;63121;51.458;-0.110;2022-12-18T12:53:48;15.40;;;6.47;;
74614;SDS011;63121;51.458;-0.110;2022-12-18T12:56:15;18.20;;;6.95;;
74614;SDS011;63121;51.458;-0.110;2022-12-18T12:58:55;17.42;;;7.35;;
74614;SDS011;63121;51.458;-0.110;2022-12-18T13:01:50;15.93;;;6.57;;
74614;SDS011;63121;51.458;-0.110;2022-12-18T13:04:27;18.17;;;6.70;;
74614;SDS011;63121;51.458;-0.110;2022-12-18T13:07:24;14.68;;;6.03;;
74614;SDS011;63121;51.458;-0.110;2022-12-18T13:12:52;15.88;;;5.70;;
74614;SDS011;63121;51.458;-0.110;2022-12-18T13:15:28;14.82;;;5.15;;
74614;SDS011;63121;51.458;-0.110;2022-12-18T13:20:35;14.70;;;5.53;;
74614;SDS011;63121;51.458;-0.110;2022-12-18T13:25:59;16.55;;;5.78;;
74614;SDS011;63121;51.458;-0.110;2022-12-18T13:31:57;15.27;;;5.20;;
74614;SDS011;63121;51.458;-0.110;2022-12-18T13:36:37;17.75;;;5.97;;
74614;SDS011;63121;51.458;-0.110;2022-12-18T13:41:46;15.63;;;5.20;;
74614;SDS011;63121;51.458;-0.110;2022-12-18T13:44:32;16.05;;;6.05;;
74614;SDS011;63121;51.458;-0.110;2022-12-18T13:47:24;14.65;;;5.70;;
74614;SDS011;63121;51.458;-0.110;2022-12-18T13:49:53;13.00;;;4.50;;
74614;SDS011;63121;51.458;-0.110;2022-12-18T13:52:24;15.32;;;5.50;;
74614;SDS011;63121;51.458;-0.110;2022-12-18T13:59:56;13.85;;;5.32;;
74614;SDS011;63121;51.458;-0.110;2022-12-18T14:02:28;15.98;;;5.65;;
74614;SDS011;63121;51.458;-0.110;2022-12-18T14:04:53;15.43;;;5.55;;
74614;SDS011;63121;51.458;-0.110;2022-12-18T14:07:24;12.98;;;5.10;;
74614;SDS011;63121;51.458;-0.110;2022-12-18T14:09:59;16.13;;;5.45;;
74614;SDS011;63121;51.458;-0.110;2022-12-18T14:12:27;15.70;;;5.03;;
74614;SDS011;63121;51.458;-0.110;2022-12-18T14:15:47;12.63;;;4.57;;
74614;SDS011;63121;51.458;-0.110;2022-12-18T14:18:19;12.98;;;4.32;;
74614;SDS011;63121;51.458;-0.110;2022-12-18T14:20:49;13.63;;;4.50;;
74614;SDS011;63121;51.458;-0.110;2022-12-18T14:23:35;14.55;;;4.53;;
74614;SDS011;63121;51.458;-0.110;2022-12-18T14:28:57;13.40;;;4.40;;
74614;SDS011;63121;51.458;-0.110;2022-12-18T14:31:26;11.18;;;4.30;;
74614;SDS011;63121;51.458;-0.110;2022-12-18T14:33:54;13.20;;;5.35;;
74614;SDS011;63121;51.458;-0.110;2022-12-18T14:36:27;11.65;;;4.07;;
74614;SDS011;63121;51.458;-0.110;2022-12-18T14:38:54;13.57;;;4.32;;
74614;SDS011;63121;51.458;-0.110;2022-12-18T14:41:56;12.95;;;4.60;;
74614;SDS011;63121;51.458;-0.110;2022-12-18T14:44:21;11.55;;;4.50;;
74614;SDS011;63121;51.458;-0.110;2022-12-18T14:46:50;13.40;;;4.75;;
74614;SDS011;63121;51.458;-0.110;2022-12-18T14:49:20;14.43;;;4.40;;
74614;SDS011;63121;51.458;-0.110;2022-12-18T14:51:47;13.50;;;5.30;;
74614;SDS011;63121;51.458;-0.110;2022-12-18T14:54:15;12.77;;;4.57;;
74614;SDS011;63121;51.458;-0.110;2022-12-18T14:56:44;10.95;;;3.78;;
74614;SDS011;63121;51.458;-0.110;2022-12-18T14:59:13;13.13;;;4.70;;
74614;SDS011;63121;51.458;-0.110;2022-12-18T15:02:04;11.20;;;4.65;;
74614;SDS011;63121;51.458;-0.110;2022-12-18T15:04:47;8.32;;;2.95;;
74614;SDS011;63121;51.458;-0.110;2022-12-18T15:07:24;11.82;;;3.90;;
74614;SDS011;63121;51.458;-0.110;2022-12-18T15:12:34;12.77;;;4.43;;
74614;SDS011;63121;51.458;-0.110;2022-12-18T15:15:01;12.05;;;4.55;;
74614;SDS011;63121;51.458;-0.110;2022-12-18T15:17:27;12.13;;;4.38;;
74614;SDS011;63121;51.458;-0.110;2022-12-18T15:19:53;13.07;;;4.78;;
74614;SDS011;63121;51.458;-0.110;2022-12-18T15:22:26;12.65;;;4.22;;
74614;SDS011;63121;51.458;-0.110;2022-12-18T15:24:55;11.77;;;3.88;;
74614;SDS011;63121;51.458;-0.110;2022-12-18T15:27:26;10.05;;;3.20;;
74614;SDS011;63121;51.458;-0.110;2022-12-18T15:32:35;9.73;;;3.35;;
74614;SDS011;63121;51.458;-0.110;2022-12-18T15:37:39;10.85;;;3.30;;
74614;SDS011;63121;51.458;-0.110;2022-12-18T15:40:06;9.65;;;3.58;;
74614;SDS011;63121;51.458;-0.110;2022-12-18T15:45:16;13.93;;;4.80;;
74614;SDS011;63121;51.458;-0.110;2022-12-18T15:47:42;8.43;;;3.10;;
74614;SDS011;63121;51.458;-0.110;2022-12-18T15:50:07;11.93;;;4.03;;
74614;SDS011;63121;51.458;-0.110;2022-12-18T15:52:35;9.52;;;3.22;;
74614;SDS011;63121;51.458;-0.110;2022-12-18T15:55:15;11.55;;;4.47;;
74614;SDS011;63121;51.458;-0.110;2022-12-18T15:58:17;9.38;;;3.58;;
74614;SDS011;63121;51.458;-0.110;2022-12-18T16:00:42;10.98;;;4.05;;
74614;SDS011;63121;51.458;-0.110;2022-12-18T16:03:08;7.47;;;2.37;;
74614;SDS011;63121;51.458;-0.110;2022-12-18T16:05:34;10.70;;;3.72;;
74614;SDS011;63121;51.458;-0.110;2022-12-18T16:07:59;9.55;;;3.42;;
74614;SDS011;63121;51.458;-0.110;2022-12-18T16:10:25;11.02;;;3.78;;
74614;SDS011;63121;51.458;-0.110;2022-12-18T16:12:51;9.75;;;3.13;;
74614;SDS011;63121;51.458;-0.110;2022-12-18T16:15:17;9.23;;;3.67;;
74614;SDS011;63121;51.458;-0.110;2022-12-18T16:17:43;7.28;;;3.05;;
74614;SDS011;63121;51.458;-0.110;2022-12-18T16:20:15;8.50;;;2.85;;
74614;SDS011;63121;51.458;-0.110;2022-12-18T16:22:43;10.10;;;3.47;;
74614;SDS011;63121;51.458;-0.110;2022-12-18T16:25:31;7.28;;;2.65;;
74614;SDS011;63121;51.458;-0.110;2022-12-18T16:27:56;8.30;;;2.65;;
74614;SDS011;63121;51.458;-0.110;2022-12-18T16:30:23;8.55;;;2.58;;
74614;SDS011;63121;51.458;-0.110;2022-12-18T16:32:55;9.32;;;2.70;;
74614;SDS011;63121;51.458;-0.110;2022-12-18T16:35:22;7.40;;;2.67;;
74614;SDS011;63121;51.458;-0.110;2022-12-18T16:37:48;7.88;;;2.60;;
74614;SDS011;63121;51.458;-0.110;2022-12-18T16:40:14;7.83;;;2.53;;
74614;SDS011;63121;51.458;-0.110;2022-12-18T16:42:41;6.82;;;2.13;;
74614;SDS011;63121;51.458;-0.110;2022-12-18T16:47:34;6.57;;;2.40;;
74614;SDS011;63121;51.458;-0.110;2022-12-18T16:49:59;6.50;;;2.25;;
74614;SDS011;63121;51.458;-0.110;2022-12-18T16:52:25;6.55;;;2.30;;
74614;SDS011;63121;51.458;-0.110;2022-12-18T16:54:50;6.88;;;2.50;;